Terminal Aerodrome Forecast
Issued by NWS Shreveport, LA

Home | Current Version | Previous Version | Text Only | Print | Product List | Glossary On
Versions: 1 2 3 4 5 6 7 8 9 10 11 12 13 14 15 16 17 18
000
FTUS44 KSHV 171403 AAA
TAFELD
TAF AMD
KELD 171403Z 1714/1812 20009KT P6SM VCTS BKN035CB
      TEMPO 1715/1718 VRB10G20KT 2SM TSRA BR OVC015CB
     FM172000 22010KT P6SM BKN040
     FM180200 23004KT P6SM BKN120=

USA.gov is the U.S. government's official web portal to all federal, state and local government web resources and services.